Decoded Metar for YPEA (PEARCE (AUS-AFB) in AUSTRALIA) (IATA:N/A) | Meteo·Mobile Aviation Weather
aviador You're here:

YPEA Decoded Metar

PEARCE (AUS-AFB) in AUSTRALIA
Report Time2018-09-22 19:00:00
UTC Time2018-09-22 19:27:36
Flight Rules vfr VFR
WindCalm
Visibility9999 m
Phenomena:N/A
Clouds:N/A
Expected CloudBase > 800 ft AGL from Temp-Dew spread
CeilingNone
Temp10°C (ISA -5)
Dew Point08°C (88% RH)
AAT9.6°C
QNH1018 hPa
Density Alt-423 ft
Elevation161 ft
Report Wrong Elevation
Raw Report
METAR YPEA 221900Z AUTO 00000KT 9999 // NCD 10/08 Q1018=

Extra information for YPEA:More info

Metar Taf Metar & Taf Last 4 Metars F.Rules Stats Wind Profile Meteogram Temp Stats Airport Information Weather charts Add Link Nearby VenuesMetar ALERT Operation Metar Decoded Social comments